sensor_id;sensor_type;location;lat;lon;timestamp;P1;durP1;ratioP1;P2;durP2;ratioP2
75732;SDS011;64435;47.424;19.400;2022-12-20T00:01:05;62.23;;;20.83;;
75732;SDS011;64435;47.424;19.400;2022-12-20T00:03:33;63.15;;;21.98;;
75732;SDS011;64435;47.424;19.400;2022-12-20T00:05:58;62.47;;;22.63;;
75732;SDS011;64435;47.424;19.400;2022-12-20T00:08:24;64.97;;;22.77;;
75732;SDS011;64435;47.424;19.400;2022-12-20T00:10:49;65.33;;;21.80;;
75732;SDS011;64435;47.424;19.400;2022-12-20T00:13:14;55.33;;;19.70;;
75732;SDS011;64435;47.424;19.400;2022-12-20T00:15:40;56.50;;;23.53;;
75732;SDS011;64435;47.424;19.400;2022-12-20T00:18:05;56.67;;;21.67;;
75732;SDS011;64435;47.424;19.400;2022-12-20T00:20:31;57.15;;;21.15;;
75732;SDS011;64435;47.424;19.400;2022-12-20T00:22:56;53.27;;;20.87;;
75732;SDS011;64435;47.424;19.400;2022-12-20T00:25:21;65.33;;;22.70;;
75732;SDS011;64435;47.424;19.400;2022-12-20T00:27:47;60.12;;;22.02;;
75732;SDS011;64435;47.424;19.400;2022-12-20T00:30:13;64.13;;;22.57;;
75732;SDS011;64435;47.424;19.400;2022-12-20T00:32:39;64.25;;;23.45;;
75732;SDS011;64435;47.424;19.400;2022-12-20T00:35:05;53.83;;;22.00;;
75732;SDS011;64435;47.424;19.400;2022-12-20T00:37:31;56.70;;;20.60;;
75732;SDS011;64435;47.424;19.400;2022-12-20T00:39:56;54.35;;;21.62;;
75732;SDS011;64435;47.424;19.400;2022-12-20T00:42:22;57.93;;;20.67;;
75732;SDS011;64435;47.424;19.400;2022-12-20T00:44:47;53.57;;;22.30;;
75732;SDS011;64435;47.424;19.400;2022-12-20T00:47:13;55.57;;;21.50;;
75732;SDS011;64435;47.424;19.400;2022-12-20T00:49:38;55.05;;;18.77;;
75732;SDS011;64435;47.424;19.400;2022-12-20T00:52:04;55.47;;;20.87;;
75732;SDS011;64435;47.424;19.400;2022-12-20T00:54:29;57.10;;;20.47;;
75732;SDS011;64435;47.424;19.400;2022-12-20T00:56:55;53.43;;;21.37;;
75732;SDS011;64435;47.424;19.400;2022-12-20T00:59:20;57.43;;;22.03;;
75732;SDS011;64435;47.424;19.400;2022-12-20T01:01:45;54.30;;;20.90;;
75732;SDS011;64435;47.424;19.400;2022-12-20T01:04:11;61.10;;;22.75;;
75732;SDS011;64435;47.424;19.400;2022-12-20T01:06:37;47.67;;;19.53;;
75732;SDS011;64435;47.424;19.400;2022-12-20T01:09:02;60.43;;;20.27;;
75732;SDS011;64435;47.424;19.400;2022-12-20T01:11:29;58.03;;;21.40;;
75732;SDS011;64435;47.424;19.400;2022-12-20T01:13:57;54.45;;;21.85;;
75732;SDS011;64435;47.424;19.400;2022-12-20T01:16:27;52.22;;;20.77;;
75732;SDS011;64435;47.424;19.400;2022-12-20T01:18:54;55.38;;;20.37;;
75732;SDS011;64435;47.424;19.400;2022-12-20T01:21:21;60.33;;;22.30;;
75732;SDS011;64435;47.424;19.400;2022-12-20T01:23:48;54.80;;;21.25;;
75732;SDS011;64435;47.424;19.400;2022-12-20T01:26:14;58.00;;;22.07;;
75732;SDS011;64435;47.424;19.400;2022-12-20T01:28:42;63.03;;;20.43;;
75732;SDS011;64435;47.424;19.400;2022-12-20T01:31:10;53.55;;;22.25;;
75732;SDS011;64435;47.424;19.400;2022-12-20T01:33:40;52.35;;;19.95;;
75732;SDS011;64435;47.424;19.400;2022-12-20T01:36:07;58.63;;;22.25;;
75732;SDS011;64435;47.424;19.400;2022-12-20T01:38:34;59.08;;;22.30;;
75732;SDS011;64435;47.424;19.400;2022-12-20T01:40:59;60.10;;;21.83;;
75732;SDS011;64435;47.424;19.400;2022-12-20T01:43:28;57.50;;;22.50;;
75732;SDS011;64435;47.424;19.400;2022-12-20T01:46:20;53.20;;;19.98;;
75732;SDS011;64435;47.424;19.400;2022-12-20T01:51:23;55.67;;;20.03;;
75732;SDS011;64435;47.424;19.400;2022-12-20T01:53:49;52.85;;;20.15;;
75732;SDS011;64435;47.424;19.400;2022-12-20T01:56:18;51.33;;;20.10;;
75732;SDS011;64435;47.424;19.400;2022-12-20T01:58:44;50.23;;;20.13;;
75732;SDS011;64435;47.424;19.400;2022-12-20T02:01:10;45.30;;;19.08;;
75732;SDS011;64435;47.424;19.400;2022-12-20T02:03:35;67.83;;;23.90;;
75732;SDS011;64435;47.424;19.400;2022-12-20T02:06:18;54.77;;;20.20;;
75732;SDS011;64435;47.424;19.400;2022-12-20T02:08:45;56.90;;;22.10;;
75732;SDS011;64435;47.424;19.400;2022-12-20T02:11:58;48.33;;;19.40;;
75732;SDS011;64435;47.424;19.400;2022-12-20T02:25:42;51.72;;;19.98;;
75732;SDS011;64435;47.424;19.400;2022-12-20T02:31:07;52.88;;;20.50;;
75732;SDS011;64435;47.424;19.400;2022-12-20T02:33:35;49.97;;;19.43;;
75732;SDS011;64435;47.424;19.400;2022-12-20T02:36:03;50.75;;;19.80;;
75732;SDS011;64435;47.424;19.400;2022-12-20T02:38:30;48.85;;;19.67;;
75732;SDS011;64435;47.424;19.400;2022-12-20T02:41:15;54.67;;;19.40;;
75732;SDS011;64435;47.424;19.400;2022-12-20T02:43:44;41.60;;;16.58;;
75732;SDS011;64435;47.424;19.400;2022-12-20T02:46:28;48.15;;;18.02;;
75732;SDS011;64435;47.424;19.400;2022-12-20T02:48:57;45.10;;;17.45;;
75732;SDS011;64435;47.424;19.400;2022-12-20T02:51:25;48.22;;;17.33;;
75732;SDS011;64435;47.424;19.400;2022-12-20T02:53:52;47.77;;;18.10;;
75732;SDS011;64435;47.424;19.400;2022-12-20T02:56:29;49.58;;;18.08;;
75732;SDS011;64435;47.424;19.400;2022-12-20T02:59:01;47.70;;;16.87;;
75732;SDS011;64435;47.424;19.400;2022-12-20T03:01:31;48.42;;;17.95;;
75732;SDS011;64435;47.424;19.400;2022-12-20T03:03:59;52.00;;;18.60;;
75732;SDS011;64435;47.424;19.400;2022-12-20T03:06:25;45.42;;;17.42;;
75732;SDS011;64435;47.424;19.400;2022-12-20T03:08:50;47.57;;;18.37;;
75732;SDS011;64435;47.424;19.400;2022-12-20T03:11:15;48.57;;;18.00;;
75732;SDS011;64435;47.424;19.400;2022-12-20T03:13:41;46.13;;;18.63;;
75732;SDS011;64435;47.424;19.400;2022-12-20T03:16:06;49.00;;;17.10;;
75732;SDS011;64435;47.424;19.400;2022-12-20T03:18:33;49.05;;;19.25;;
75732;SDS011;64435;47.424;19.400;2022-12-20T03:20:58;41.00;;;17.53;;
75732;SDS011;64435;47.424;19.400;2022-12-20T03:23:24;43.10;;;17.80;;
75732;SDS011;64435;47.424;19.400;2022-12-20T03:25:49;50.90;;;17.93;;
75732;SDS011;64435;47.424;19.400;2022-12-20T03:28:14;44.17;;;16.90;;
75732;SDS011;64435;47.424;19.400;2022-12-20T03:30:40;44.45;;;16.90;;
75732;SDS011;64435;47.424;19.400;2022-12-20T03:33:06;44.10;;;16.67;;
75732;SDS011;64435;47.424;19.400;2022-12-20T03:35:31;42.70;;;17.23;;
75732;SDS011;64435;47.424;19.400;2022-12-20T03:37:56;48.00;;;18.00;;
75732;SDS011;64435;47.424;19.400;2022-12-20T03:40:22;41.60;;;16.70;;
75732;SDS011;64435;47.424;19.400;2022-12-20T03:42:47;43.30;;;16.27;;
75732;SDS011;64435;47.424;19.400;2022-12-20T03:45:13;46.40;;;18.60;;
75732;SDS011;64435;47.424;19.400;2022-12-20T03:47:38;44.88;;;16.92;;
75732;SDS011;64435;47.424;19.400;2022-12-20T03:50:05;41.93;;;17.03;;
75732;SDS011;64435;47.424;19.400;2022-12-20T03:52:30;43.60;;;16.27;;
75732;SDS011;64435;47.424;19.400;2022-12-20T03:54:56;40.40;;;15.77;;
75732;SDS011;64435;47.424;19.400;2022-12-20T03:57:21;38.63;;;15.33;;
75732;SDS011;64435;47.424;19.400;2022-12-20T03:59:47;43.38;;;15.80;;
75732;SDS011;64435;47.424;19.400;2022-12-20T04:02:12;37.63;;;14.93;;
75732;SDS011;64435;47.424;19.400;2022-12-20T04:04:37;42.23;;;16.00;;
75732;SDS011;64435;47.424;19.400;2022-12-20T04:07:03;40.73;;;16.00;;
75732;SDS011;64435;47.424;19.400;2022-12-20T04:09:28;36.10;;;14.17;;
75732;SDS011;64435;47.424;19.400;2022-12-20T04:11:54;40.45;;;15.82;;
75732;SDS011;64435;47.424;19.400;2022-12-20T04:14:19;38.13;;;15.13;;
75732;SDS011;64435;47.424;19.400;2022-12-20T04:16:45;40.53;;;16.20;;
75732;SDS011;64435;47.424;19.400;2022-12-20T04:19:10;37.33;;;14.87;;
75732;SDS011;64435;47.424;19.400;2022-12-20T04:21:36;41.85;;;15.95;;
75732;SDS011;64435;47.424;19.400;2022-12-20T04:24:02;42.13;;;16.23;;
75732;SDS011;64435;47.424;19.400;2022-12-20T04:26:28;48.47;;;16.12;;
75732;SDS011;64435;47.424;19.400;2022-12-20T04:28:54;41.95;;;16.12;;
75732;SDS011;64435;47.424;19.400;2022-12-20T04:31:20;41.53;;;16.80;;
75732;SDS011;64435;47.424;19.400;2022-12-20T04:33:48;47.97;;;16.67;;
75732;SDS011;64435;47.424;19.400;2022-12-20T04:36:15;49.80;;;17.97;;
75732;SDS011;64435;47.424;19.400;2022-12-20T04:38:41;41.45;;;16.85;;
75732;SDS011;64435;47.424;19.400;2022-12-20T04:41:06;42.87;;;16.27;;
75732;SDS011;64435;47.424;19.400;2022-12-20T04:43:32;54.78;;;16.80;;
75732;SDS011;64435;47.424;19.400;2022-12-20T04:45:57;43.83;;;17.27;;
75732;SDS011;64435;47.424;19.400;2022-12-20T04:48:24;46.47;;;16.30;;
75732;SDS011;64435;47.424;19.400;2022-12-20T04:50:51;40.28;;;16.25;;
75732;SDS011;64435;47.424;19.400;2022-12-20T04:53:17;48.28;;;17.37;;
75732;SDS011;64435;47.424;19.400;2022-12-20T04:56:01;43.93;;;15.63;;
75732;SDS011;64435;47.424;19.400;2022-12-20T04:58:30;41.42;;;15.55;;
75732;SDS011;64435;47.424;19.400;2022-12-20T05:00:55;42.95;;;16.62;;
75732;SDS011;64435;47.424;19.400;2022-12-20T05:03:24;47.97;;;17.17;;
75732;SDS011;64435;47.424;19.400;2022-12-20T05:05:50;45.12;;;17.23;;
75732;SDS011;64435;47.424;19.400;2022-12-20T05:08:15;43.00;;;15.60;;
75732;SDS011;64435;47.424;19.400;2022-12-20T05:10:42;43.50;;;16.33;;
75732;SDS011;64435;47.424;19.400;2022-12-20T05:13:08;42.17;;;16.70;;
75732;SDS011;64435;47.424;19.400;2022-12-20T05:15:33;47.27;;;18.63;;
75732;SDS011;64435;47.424;19.400;2022-12-20T05:17:59;48.80;;;18.40;;
75732;SDS011;64435;47.424;19.400;2022-12-20T05:20:25;43.25;;;17.35;;
75732;SDS011;64435;47.424;19.400;2022-12-20T05:22:51;43.27;;;18.17;;
75732;SDS011;64435;47.424;19.400;2022-12-20T05:25:37;45.55;;;17.55;;
75732;SDS011;64435;47.424;19.400;2022-12-20T05:28:22;44.50;;;16.85;;
75732;SDS011;64435;47.424;19.400;2022-12-20T05:30:47;43.23;;;18.13;;
75732;SDS011;64435;47.424;19.400;2022-12-20T05:33:12;37.47;;;17.55;;
75732;SDS011;64435;47.424;19.400;2022-12-20T05:35:38;44.83;;;16.97;;
75732;SDS011;64435;47.424;19.400;2022-12-20T05:38:06;48.42;;;18.15;;
75732;SDS011;64435;47.424;19.400;2022-12-20T05:40:31;45.60;;;17.37;;
75732;SDS011;64435;47.424;19.400;2022-12-20T05:42:57;42.07;;;17.63;;
75732;SDS011;64435;47.424;19.400;2022-12-20T05:45:22;48.33;;;17.13;;
75732;SDS011;64435;47.424;19.400;2022-12-20T05:47:47;49.73;;;18.07;;
75732;SDS011;64435;47.424;19.400;2022-12-20T05:50:13;44.07;;;17.87;;
75732;SDS011;64435;47.424;19.400;2022-12-20T05:52:38;43.70;;;17.00;;
75732;SDS011;64435;47.424;19.400;2022-12-20T05:55:04;46.93;;;16.40;;
75732;SDS011;64435;47.424;19.400;2022-12-20T05:57:29;45.42;;;17.55;;
75732;SDS011;64435;47.424;19.400;2022-12-20T05:59:55;45.87;;;18.53;;
75732;SDS011;64435;47.424;19.400;2022-12-20T06:02:21;44.33;;;18.17;;
75732;SDS011;64435;47.424;19.400;2022-12-20T06:04:46;39.77;;;18.10;;
75732;SDS011;64435;47.424;19.400;2022-12-20T06:07:11;44.77;;;18.13;;
75732;SDS011;64435;47.424;19.400;2022-12-20T06:09:37;42.70;;;16.43;;
75732;SDS011;64435;47.424;19.400;2022-12-20T06:12:02;46.53;;;17.00;;
75732;SDS011;64435;47.424;19.400;2022-12-20T06:14:29;45.13;;;17.93;;
75732;SDS011;64435;47.424;19.400;2022-12-20T06:16:54;49.22;;;19.73;;
75732;SDS011;64435;47.424;19.400;2022-12-20T06:19:19;42.90;;;16.40;;
75732;SDS011;64435;47.424;19.400;2022-12-20T06:21:45;48.10;;;17.45;;
75732;SDS011;64435;47.424;19.400;2022-12-20T06:24:11;41.67;;;16.80;;
75732;SDS011;64435;47.424;19.400;2022-12-20T06:26:36;41.43;;;17.43;;
75732;SDS011;64435;47.424;19.400;2022-12-20T06:29:02;48.20;;;17.93;;
75732;SDS011;64435;47.424;19.400;2022-12-20T06:31:31;42.08;;;17.30;;
75732;SDS011;64435;47.424;19.400;2022-12-20T06:33:57;44.95;;;18.55;;
75732;SDS011;64435;47.424;19.400;2022-12-20T06:36:22;40.13;;;16.60;;
75732;SDS011;64435;47.424;19.400;2022-12-20T06:38:47;41.57;;;16.47;;
75732;SDS011;64435;47.424;19.400;2022-12-20T06:41:13;43.43;;;17.70;;
75732;SDS011;64435;47.424;19.400;2022-12-20T06:43:38;40.40;;;16.93;;
75732;SDS011;64435;47.424;19.400;2022-12-20T06:46:04;38.57;;;15.33;;
75732;SDS011;64435;47.424;19.400;2022-12-20T06:48:30;38.58;;;16.70;;
75732;SDS011;64435;47.424;19.400;2022-12-20T06:50:55;35.83;;;14.53;;
75732;SDS011;64435;47.424;19.400;2022-12-20T06:53:21;40.42;;;16.92;;
75732;SDS011;64435;47.424;19.400;2022-12-20T06:55:46;38.73;;;16.77;;
75732;SDS011;64435;47.424;19.400;2022-12-20T06:58:14;42.65;;;15.20;;
75732;SDS011;64435;47.424;19.400;2022-12-20T07:00:40;39.20;;;15.67;;
75732;SDS011;64435;47.424;19.400;2022-12-20T07:03:05;36.20;;;15.40;;
75732;SDS011;64435;47.424;19.400;2022-12-20T07:05:31;39.43;;;17.10;;
75732;SDS011;64435;47.424;19.400;2022-12-20T07:07:56;38.13;;;15.27;;
75732;SDS011;64435;47.424;19.400;2022-12-20T07:10:21;36.93;;;15.40;;
75732;SDS011;64435;47.424;19.400;2022-12-20T07:12:47;35.03;;;14.97;;
75732;SDS011;64435;47.424;19.400;2022-12-20T07:15:12;37.88;;;15.50;;
75732;SDS011;64435;47.424;19.400;2022-12-20T07:17:38;37.10;;;14.87;;
75732;SDS011;64435;47.424;19.400;2022-12-20T07:20:03;36.63;;;16.40;;
75732;SDS011;64435;47.424;19.400;2022-12-20T07:22:29;35.80;;;14.25;;
75732;SDS011;64435;47.424;19.400;2022-12-20T07:24:54;34.77;;;15.27;;
75732;SDS011;64435;47.424;19.400;2022-12-20T07:27:20;41.87;;;16.13;;
75732;SDS011;64435;47.424;19.400;2022-12-20T07:29:45;38.65;;;15.93;;
75732;SDS011;64435;47.424;19.400;2022-12-20T07:32:11;39.73;;;15.90;;
75732;SDS011;64435;47.424;19.400;2022-12-20T07:34:37;38.03;;;15.68;;
75732;SDS011;64435;47.424;19.400;2022-12-20T07:37:02;32.87;;;14.53;;
75732;SDS011;64435;47.424;19.400;2022-12-20T07:39:28;34.60;;;14.57;;
75732;SDS011;64435;47.424;19.400;2022-12-20T07:41:54;33.13;;;15.17;;
75732;SDS011;64435;47.424;19.400;2022-12-20T07:44:20;31.27;;;13.68;;
75732;SDS011;64435;47.424;19.400;2022-12-20T07:46:46;36.90;;;13.63;;
75732;SDS011;64435;47.424;19.400;2022-12-20T07:49:11;33.83;;;13.77;;
75732;SDS011;64435;47.424;19.400;2022-12-20T07:51:38;33.07;;;12.97;;
75732;SDS011;64435;47.424;19.400;2022-12-20T07:54:08;37.35;;;13.90;;
75732;SDS011;64435;47.424;19.400;2022-12-20T07:56:37;29.48;;;12.68;;
75732;SDS011;64435;47.424;19.400;2022-12-20T07:59:05;27.53;;;11.07;;
75732;SDS011;64435;47.424;19.400;2022-12-20T08:01:31;33.38;;;13.02;;
75732;SDS011;64435;47.424;19.400;2022-12-20T08:04:02;35.47;;;14.10;;
75732;SDS011;64435;47.424;19.400;2022-12-20T08:06:30;32.35;;;13.70;;
75732;SDS011;64435;47.424;19.400;2022-12-20T08:08:56;32.47;;;11.40;;
75732;SDS011;64435;47.424;19.400;2022-12-20T08:11:24;19.23;;;8.60;;
75732;SDS011;64435;47.424;19.400;2022-12-20T08:13:50;32.83;;;12.03;;
75732;SDS011;64435;47.424;19.400;2022-12-20T08:16:16;27.80;;;10.63;;
75732;SDS011;64435;47.424;19.400;2022-12-20T08:18:41;20.05;;;8.82;;
75732;SDS011;64435;47.424;19.400;2022-12-20T08:21:07;26.50;;;11.23;;
75732;SDS011;64435;47.424;19.400;2022-12-20T08:23:32;27.80;;;12.17;;
75732;SDS011;64435;47.424;19.400;2022-12-20T08:25:59;27.60;;;11.23;;
75732;SDS011;64435;47.424;19.400;2022-12-20T08:28:25;23.30;;;9.93;;
75732;SDS011;64435;47.424;19.400;2022-12-20T08:30:50;21.30;;;8.27;;
75732;SDS011;64435;47.424;19.400;2022-12-20T08:33:16;20.37;;;8.10;;
75732;SDS011;64435;47.424;19.400;2022-12-20T08:35:41;21.43;;;9.37;;
75732;SDS011;64435;47.424;19.400;2022-12-20T08:38:06;27.35;;;11.12;;
75732;SDS011;64435;47.424;19.400;2022-12-20T08:40:32;20.83;;;8.33;;
75732;SDS011;64435;47.424;19.400;2022-12-20T08:42:57;17.67;;;8.10;;
75732;SDS011;64435;47.424;19.400;2022-12-20T08:45:23;32.60;;;10.63;;
75732;SDS011;64435;47.424;19.400;2022-12-20T08:47:48;15.60;;;7.43;;
75732;SDS011;64435;47.424;19.400;2022-12-20T08:50:13;24.87;;;10.57;;
75732;SDS011;64435;47.424;19.400;2022-12-20T08:52:39;28.77;;;11.23;;
75732;SDS011;64435;47.424;19.400;2022-12-20T08:55:04;30.23;;;10.97;;
75732;SDS011;64435;47.424;19.400;2022-12-20T08:57:30;18.58;;;7.53;;
75732;SDS011;64435;47.424;19.400;2022-12-20T08:59:55;22.73;;;9.60;;
75732;SDS011;64435;47.424;19.400;2022-12-20T09:02:21;32.27;;;13.27;;
75732;SDS011;64435;47.424;19.400;2022-12-20T09:04:46;19.50;;;7.60;;
75732;SDS011;64435;47.424;19.400;2022-12-20T09:07:12;22.48;;;9.23;;
75732;SDS011;64435;47.424;19.400;2022-12-20T09:09:38;25.07;;;11.10;;
75732;SDS011;64435;47.424;19.400;2022-12-20T09:12:03;32.60;;;12.10;;
75732;SDS011;64435;47.424;19.400;2022-12-20T09:14:29;24.37;;;7.70;;
75732;SDS011;64435;47.424;19.400;2022-12-20T09:16:54;12.23;;;4.80;;
75732;SDS011;64435;47.424;19.400;2022-12-20T09:19:20;14.93;;;6.93;;
75732;SDS011;64435;47.424;19.400;2022-12-20T09:21:45;17.20;;;7.70;;
75732;SDS011;64435;47.424;19.400;2022-12-20T09:24:10;27.47;;;11.37;;
75732;SDS011;64435;47.424;19.400;2022-12-20T09:26:36;16.33;;;7.40;;
75732;SDS011;64435;47.424;19.400;2022-12-20T09:29:02;27.73;;;10.82;;
75732;SDS011;64435;47.424;19.400;2022-12-20T09:31:27;25.17;;;10.30;;
75732;SDS011;64435;47.424;19.400;2022-12-20T09:33:53;20.87;;;9.27;;
75732;SDS011;64435;47.424;19.400;2022-12-20T09:36:20;21.30;;;9.98;;
75732;SDS011;64435;47.424;19.400;2022-12-20T09:38:46;26.60;;;10.97;;
75732;SDS011;64435;47.424;19.400;2022-12-20T09:44:10;24.10;;;10.60;;
75732;SDS011;64435;47.424;19.400;2022-12-20T09:46:53;24.33;;;10.00;;
75732;SDS011;64435;47.424;19.400;2022-12-20T09:49:20;25.62;;;12.20;;
75732;SDS011;64435;47.424;19.400;2022-12-20T09:57:28;25.55;;;11.32;;
75732;SDS011;64435;47.424;19.400;2022-12-20T09:59:56;20.48;;;9.45;;
75732;SDS011;64435;47.424;19.400;2022-12-20T10:02:24;23.92;;;10.45;;
75732;SDS011;64435;47.424;19.400;2022-12-20T10:04:51;23.03;;;9.57;;
75732;SDS011;64435;47.424;19.400;2022-12-20T10:15:34;22.20;;;10.65;;
75732;SDS011;64435;47.424;19.400;2022-12-20T10:20:57;18.35;;;7.78;;
75732;SDS011;64435;47.424;19.400;2022-12-20T10:23:45;19.15;;;7.43;;
75732;SDS011;64435;47.424;19.400;2022-12-20T10:26:31;12.95;;;5.82;;
75732;SDS011;64435;47.424;19.400;2022-12-20T10:28:57;24.77;;;11.98;;
75732;SDS011;64435;47.424;19.400;2022-12-20T10:31:23;16.73;;;7.77;;
75732;SDS011;64435;47.424;19.400;2022-12-20T10:33:49;25.40;;;10.75;;
75732;SDS011;64435;47.424;19.400;2022-12-20T10:36:22;14.37;;;5.60;;
75732;SDS011;64435;47.424;19.400;2022-12-20T10:38:51;23.65;;;10.65;;
75732;SDS011;64435;47.424;19.400;2022-12-20T10:41:24;23.90;;;10.73;;
75732;SDS011;64435;47.424;19.400;2022-12-20T10:49:25;22.50;;;9.38;;
75732;SDS011;64435;47.424;19.400;2022-12-20T10:52:11;20.33;;;9.03;;
75732;SDS011;64435;47.424;19.400;2022-12-20T10:54:42;14.95;;;6.68;;
75732;SDS011;64435;47.424;19.400;2022-12-20T10:57:23;15.43;;;7.30;;
75732;SDS011;64435;47.424;19.400;2022-12-20T10:59:52;17.65;;;8.45;;
75732;SDS011;64435;47.424;19.400;2022-12-20T11:02:26;21.50;;;10.80;;
75732;SDS011;64435;47.424;19.400;2022-12-20T11:07:54;22.48;;;9.82;;
75732;SDS011;64435;47.424;19.400;2022-12-20T11:10:22;19.45;;;9.88;;
75732;SDS011;64435;47.424;19.400;2022-12-20T11:12:56;19.67;;;8.07;;
75732;SDS011;64435;47.424;19.400;2022-12-20T11:15:23;18.60;;;8.52;;
75732;SDS011;64435;47.424;19.400;2022-12-20T11:17:52;22.47;;;9.90;;
75732;SDS011;64435;47.424;19.400;2022-12-20T11:33:59;19.95;;;9.00;;
75732;SDS011;64435;47.424;19.400;2022-12-20T11:49:16;18.45;;;8.50;;
75732;SDS011;64435;47.424;19.400;2022-12-20T11:51:48;22.60;;;8.65;;
75732;SDS011;64435;47.424;19.400;2022-12-20T11:56:57;12.50;;;5.22;;
75732;SDS011;64435;47.424;19.400;2022-12-20T12:05:06;17.35;;;7.07;;
75732;SDS011;64435;47.424;19.400;2022-12-20T12:07:39;21.60;;;8.15;;
75732;SDS011;64435;47.424;19.400;2022-12-20T12:12:42;11.90;;;5.50;;
75732;SDS011;64435;47.424;19.400;2022-12-20T12:15:25;14.27;;;6.82;;
75732;SDS011;64435;47.424;19.400;2022-12-20T12:26:26;30.93;;;14.30;;
75732;SDS011;64435;47.424;19.400;2022-12-20T12:28:55;30.52;;;13.15;;
75732;SDS011;64435;47.424;19.400;2022-12-20T12:31:24;30.50;;;13.00;;
75732;SDS011;64435;47.424;19.400;2022-12-20T12:34:01;29.50;;;12.55;;
75732;SDS011;64435;47.424;19.400;2022-12-20T12:36:50;28.25;;;12.68;;
75732;SDS011;64435;47.424;19.400;2022-12-20T12:45:02;40.60;;;16.98;;
75732;SDS011;64435;47.424;19.400;2022-12-20T12:47:37;34.95;;;13.20;;
75732;SDS011;64435;47.424;19.400;2022-12-20T12:50:07;28.35;;;11.75;;
75732;SDS011;64435;47.424;19.400;2022-12-20T12:52:44;34.33;;;13.20;;
75732;SDS011;64435;47.424;19.400;2022-12-20T13:11:36;37.40;;;16.95;;
75732;SDS011;64435;47.424;19.400;2022-12-20T13:16:53;25.58;;;11.88;;
75732;SDS011;64435;47.424;19.400;2022-12-20T13:21:54;24.33;;;11.00;;
75732;SDS011;64435;47.424;19.400;2022-12-20T13:24:30;25.55;;;11.18;;
75732;SDS011;64435;47.424;19.400;2022-12-20T13:27:00;26.80;;;11.90;;
75732;SDS011;64435;47.424;19.400;2022-12-20T13:29:31;28.20;;;11.68;;
75732;SDS011;64435;47.424;19.400;2022-12-20T13:31:58;29.42;;;11.80;;
75732;SDS011;64435;47.424;19.400;2022-12-20T13:34:34;25.50;;;11.63;;
75732;SDS011;64435;47.424;19.400;2022-12-20T13:37:00;26.17;;;12.20;;
75732;SDS011;64435;47.424;19.400;2022-12-20T13:44:54;32.38;;;13.40;;
75732;SDS011;64435;47.424;19.400;2022-12-20T13:49:58;33.80;;;12.82;;
75732;SDS011;64435;47.424;19.400;2022-12-20T13:52:29;28.25;;;12.65;;
75732;SDS011;64435;47.424;19.400;2022-12-20T13:54:57;29.27;;;13.23;;
75732;SDS011;64435;47.424;19.400;2022-12-20T13:57:29;30.23;;;14.03;;
75732;SDS011;64435;47.424;19.400;2022-12-20T14:00:05;39.70;;;17.87;;
75732;SDS011;64435;47.424;19.400;2022-12-20T14:02:39;47.25;;;21.75;;
75732;SDS011;64435;47.424;19.400;2022-12-20T14:05:12;45.92;;;20.15;;
75732;SDS011;64435;47.424;19.400;2022-12-20T14:07:38;38.90;;;17.60;;
75732;SDS011;64435;47.424;19.400;2022-12-20T14:10:11;43.77;;;17.97;;
75732;SDS011;64435;47.424;19.400;2022-12-20T14:12:43;45.55;;;20.33;;
75732;SDS011;64435;47.424;19.400;2022-12-20T14:15:23;36.47;;;16.87;;
75732;SDS011;64435;47.424;19.400;2022-12-20T14:17:48;43.95;;;20.05;;
75732;SDS011;64435;47.424;19.400;2022-12-20T14:20:15;41.43;;;19.87;;
75732;SDS011;64435;47.424;19.400;2022-12-20T14:22:43;43.75;;;20.27;;
75732;SDS011;64435;47.424;19.400;2022-12-20T14:25:12;40.65;;;17.33;;
75732;SDS011;64435;47.424;19.400;2022-12-20T14:27:40;38.63;;;17.20;;
75732;SDS011;64435;47.424;19.400;2022-12-20T14:30:23;40.50;;;17.27;;
75732;SDS011;64435;47.424;19.400;2022-12-20T14:32:50;43.73;;;17.87;;
75732;SDS011;64435;47.424;19.400;2022-12-20T14:35:17;33.33;;;15.00;;
75732;SDS011;64435;47.424;19.400;2022-12-20T14:37:51;41.57;;;18.27;;
75732;SDS011;64435;47.424;19.400;2022-12-20T14:40:24;40.03;;;17.35;;
75732;SDS011;64435;47.424;19.400;2022-12-20T14:42:50;34.90;;;15.85;;
75732;SDS011;64435;47.424;19.400;2022-12-20T14:45:18;36.23;;;15.37;;
75732;SDS011;64435;47.424;19.400;2022-12-20T14:47:50;43.05;;;18.05;;
75732;SDS011;64435;47.424;19.400;2022-12-20T14:50:29;47.80;;;22.67;;
75732;SDS011;64435;47.424;19.400;2022-12-20T14:52:57;39.60;;;17.40;;
75732;SDS011;64435;47.424;19.400;2022-12-20T14:55:24;34.83;;;15.18;;
75732;SDS011;64435;47.424;19.400;2022-12-20T14:57:54;32.23;;;15.70;;
75732;SDS011;64435;47.424;19.400;2022-12-20T15:08:20;37.92;;;16.08;;
75732;SDS011;64435;47.424;19.400;2022-12-20T15:13:32;37.40;;;15.05;;
75732;SDS011;64435;47.424;19.400;2022-12-20T15:16:44;35.13;;;14.40;;
75732;SDS011;64435;47.424;19.400;2022-12-20T15:18:53;36.28;;;15.07;;
75732;SDS011;64435;47.424;19.400;2022-12-20T15:21:41;37.22;;;15.45;;
75732;SDS011;64435;47.424;19.400;2022-12-20T15:24:11;37.07;;;16.73;;
75732;SDS011;64435;47.424;19.400;2022-12-20T15:26:44;35.95;;;17.08;;
75732;SDS011;64435;47.424;19.400;2022-12-20T15:29:20;33.88;;;16.73;;
75732;SDS011;64435;47.424;19.400;2022-12-20T15:31:48;39.78;;;18.10;;
75732;SDS011;64435;47.424;19.400;2022-12-20T15:34:14;37.60;;;17.20;;
75732;SDS011;64435;47.424;19.400;2022-12-20T15:36:44;40.15;;;16.77;;
75732;SDS011;64435;47.424;19.400;2022-12-20T15:39:09;37.83;;;16.33;;
75732;SDS011;64435;47.424;19.400;2022-12-20T15:41:36;36.75;;;15.40;;
75732;SDS011;64435;47.424;19.400;2022-12-20T15:44:05;42.45;;;16.85;;
75732;SDS011;64435;47.424;19.400;2022-12-20T15:46:32;39.13;;;17.10;;
75732;SDS011;64435;47.424;19.400;2022-12-20T15:48:57;39.08;;;16.00;;
75732;SDS011;64435;47.424;19.400;2022-12-20T15:51:27;32.77;;;15.50;;
75732;SDS011;64435;47.424;19.400;2022-12-20T15:53:55;38.85;;;16.25;;
75732;SDS011;64435;47.424;19.400;2022-12-20T15:56:21;41.30;;;17.90;;
75732;SDS011;64435;47.424;19.400;2022-12-20T15:58:48;43.80;;;17.03;;
75732;SDS011;64435;47.424;19.400;2022-12-20T16:01:18;41.60;;;17.77;;
75732;SDS011;64435;47.424;19.400;2022-12-20T16:03:45;40.10;;;17.42;;
75732;SDS011;64435;47.424;19.400;2022-12-20T16:06:10;45.60;;;19.93;;
75732;SDS011;64435;47.424;19.400;2022-12-20T16:08:39;44.92;;;19.02;;
75732;SDS011;64435;47.424;19.400;2022-12-20T16:11:05;52.38;;;22.60;;
75732;SDS011;64435;47.424;19.400;2022-12-20T16:13:34;49.65;;;21.25;;
75732;SDS011;64435;47.424;19.400;2022-12-20T16:16:00;48.30;;;21.27;;
75732;SDS011;64435;47.424;19.400;2022-12-20T16:18:25;49.23;;;21.77;;
75732;SDS011;64435;47.424;19.400;2022-12-20T16:20:51;45.90;;;20.27;;
75732;SDS011;64435;47.424;19.400;2022-12-20T16:23:17;56.10;;;23.20;;
75732;SDS011;64435;47.424;19.400;2022-12-20T16:25:43;61.45;;;25.17;;
75732;SDS011;64435;47.424;19.400;2022-12-20T16:28:09;52.38;;;23.87;;
75732;SDS011;64435;47.424;19.400;2022-12-20T16:30:35;55.50;;;22.67;;
75732;SDS011;64435;47.424;19.400;2022-12-20T16:33:00;52.93;;;23.13;;